WZZ173 LHBP-LIRF
Flight info
| Callsign | WZZ173 |
|---|---|
| Flight time | 1h 23m |
| Altitude | 36000 |
| Route | DUZLA DCT VEBAL DCT KULEN DCT BAXON DCT UNUMU DCT ETPOK T369 RITEB |
| Aircraft | A21N/M-SDE2E3FGHIRWXY/LB1 |
Departure
| Time | 2026-02-19 13:27 |
|---|---|
| Airport | Budapest Liszt Ferenc International Airport (LHBP) |
Arrival
| Time | 2026-02-19 14:50 |
|---|---|
| Airport | Rome–Fiumicino Leonardo da Vinci International Airport (LIRF) |
| Time | Latitude | Longitude | Altitude | Speed | Heading |
|---|---|---|---|---|---|
| 2026-02-19 13:04 | 47.43077 | 19.25990 | 485 ft | 0 kts | 43° |
| 2026-02-19 13:21 | 47.43063 | 19.25971 | 484 ft | 3 kts | 43° |
| 2026-02-19 13:21 | 47.43049 | 19.25955 | 486 ft | 3 kts | 8° |
| 2026-02-19 13:21 | 47.43031 | 19.25961 | 478 ft | 3 kts | 306° |
| 2026-02-19 13:22 | 47.43027 | 19.25971 | 476 ft | 0 kts | 279° |
| 2026-02-19 13:22 | 47.43030 | 19.25943 | 477 ft | 0 kts | 283° |
| 2026-02-19 13:23 | 47.43034 | 19.25928 | 480 ft | 3 kts | 293° |
| 2026-02-19 13:23 | 47.43046 | 19.25901 | 484 ft | 1 kts | 327° |
| 2026-02-19 13:23 | 47.43084 | 19.25852 | 478 ft | 15 kts | 314° |
| 2026-02-19 13:24 | 47.43151 | 19.25749 | 482 ft | 13 kts | 314° |
| 2026-02-19 13:24 | 47.43409 | 19.25475 | 479 ft | 18 kts | 35° |
| 2026-02-19 13:25 | 47.43658 | 19.25810 | 488 ft | 29 kts | 43° |
| 2026-02-19 13:25 | 47.43792 | 19.25994 | 483 ft | 24 kts | 43° |
| 2026-02-19 13:25 | 47.43907 | 19.26148 | 486 ft | 30 kts | 42° |
| 2026-02-19 13:25 | 47.44060 | 19.26398 | 493 ft | 31 kts | 71° |
| 2026-02-19 13:26 | 47.43965 | 19.26690 | 486 ft | 50 kts | 131° |
| 2026-02-19 13:26 | 47.43590 | 19.27294 | 489 ft | 110 kts | 134° |
| 2026-02-19 13:26 | 47.42942 | 19.28377 | 502 ft | 167 kts | 141° |
| 2026-02-19 13:26 | 47.42034 | 19.29523 | 822 ft | 178 kts | 139° |
| 2026-02-19 13:27 | 47.41291 | 19.31018 | 1366 ft | 179 kts | 130° |
| 2026-02-19 13:27 | 47.40734 | 19.32588 | 2245 ft | 171 kts | 117° |
| 2026-02-19 13:27 | 47.40219 | 19.34291 | 2614 ft | 193 kts | 120° |
| 2026-02-19 13:27 | 47.39585 | 19.36182 | 2871 ft | 217 kts | 122° |
| 2026-02-19 13:28 | 47.38839 | 19.38205 | 3187 ft | 235 kts | 126° |
| 2026-02-19 13:28 | 47.36125 | 19.40758 | 4117 ft | 246 kts | 184° |
| 2026-02-19 13:28 | 47.34491 | 19.40123 | 4849 ft | 244 kts | 214° |
| 2026-02-19 13:29 | 47.33305 | 19.38395 | 5756 ft | 240 kts | 236° |
| 2026-02-19 13:29 | 47.32439 | 19.36295 | 6673 ft | 239 kts | 241° |
| 2026-02-19 13:29 | 47.31631 | 19.34139 | 7482 ft | 242 kts | 242° |
| 2026-02-19 13:29 | 47.30811 | 19.31949 | 8288 ft | 246 kts | 242° |
| 2026-02-19 13:30 | 47.29973 | 19.29738 | 9117 ft | 249 kts | 242° |
| 2026-02-19 13:30 | 47.29125 | 19.27524 | 9952 ft | 252 kts | 242° |
| 2026-02-19 13:30 | 47.28240 | 19.25226 | 10515 ft | 266 kts | 242° |
| 2026-02-19 13:30 | 47.27287 | 19.22758 | 10808 ft | 288 kts | 242° |
| 2026-02-19 13:31 | 47.26255 | 19.20098 | 11095 ft | 309 kts | 242° |
| 2026-02-19 13:31 | 47.25150 | 19.17256 | 11413 ft | 328 kts | 242° |
| 2026-02-19 13:31 | 47.23992 | 19.14287 | 11928 ft | 339 kts | 242° |
| 2026-02-19 13:31 | 47.22806 | 19.11249 | 12657 ft | 344 kts | 242° |
| 2026-02-19 13:32 | 47.21606 | 19.08178 | 13425 ft | 348 kts | 242° |
| 2026-02-19 13:32 | 47.19089 | 19.02001 | 14760 ft | 359 kts | 233° |
| 2026-02-19 13:32 | 47.17299 | 18.99374 | 15422 ft | 367 kts | 224° |
| 2026-02-19 13:33 | 47.15335 | 18.96938 | 16078 ft | 371 kts | 223° |
| 2026-02-19 13:33 | 47.13331 | 18.94517 | 16692 ft | 375 kts | 222° |
| 2026-02-19 13:33 | 47.11324 | 18.92087 | 17297 ft | 379 kts | 223° |
| 2026-02-19 13:33 | 47.09278 | 18.89599 | 17891 ft | 383 kts | 223° |
| 2026-02-19 13:34 | 47.07221 | 18.87091 | 18410 ft | 386 kts | 223° |
| 2026-02-19 13:34 | 47.05141 | 18.84553 | 18958 ft | 389 kts | 223° |
| 2026-02-19 13:34 | 47.03050 | 18.82000 | 19479 ft | 392 kts | 223° |
| 2026-02-19 13:34 | 47.00969 | 18.79461 | 19989 ft | 395 kts | 223° |
| 2026-02-19 13:35 | 46.98853 | 18.76880 | 20511 ft | 398 kts | 223° |
| 2026-02-19 13:35 | 46.96721 | 18.74270 | 21033 ft | 401 kts | 223° |
| 2026-02-19 13:35 | 46.94652 | 18.71487 | 21432 ft | 405 kts | 226° |
| 2026-02-19 13:35 | 46.92645 | 18.68558 | 21927 ft | 408 kts | 228° |
| 2026-02-19 13:36 | 46.90668 | 18.65554 | 22418 ft | 411 kts | 229° |
| 2026-02-19 13:36 | 46.86725 | 18.59460 | 23427 ft | 414 kts | 229° |
| 2026-02-19 13:36 | 46.84753 | 18.56422 | 23804 ft | 417 kts | 229° |
| 2026-02-19 13:37 | 46.82753 | 18.53363 | 24289 ft | 416 kts | 229° |
| 2026-02-19 13:37 | 46.80746 | 18.50311 | 24804 ft | 416 kts | 229° |
| 2026-02-19 13:37 | 46.78731 | 18.47261 | 25299 ft | 416 kts | 229° |
| 2026-02-19 13:37 | 46.76715 | 18.44216 | 25771 ft | 416 kts | 229° |
| 2026-02-19 13:38 | 46.74705 | 18.41187 | 26282 ft | 414 kts | 229° |
| 2026-02-19 13:38 | 46.72738 | 18.38227 | 26909 ft | 407 kts | 229° |
| 2026-02-19 13:38 | 46.70788 | 18.35302 | 27752 ft | 397 kts | 229° |
| 2026-02-19 13:38 | 46.68876 | 18.32435 | 28481 ft | 390 kts | 230° |
| 2026-02-19 13:39 | 46.66995 | 18.29615 | 29022 ft | 386 kts | 230° |
| 2026-02-19 13:39 | 46.65131 | 18.26816 | 29490 ft | 383 kts | 230° |
| 2026-02-19 13:39 | 46.63280 | 18.24040 | 29946 ft | 381 kts | 230° |
| 2026-02-19 13:39 | 46.61459 | 18.21311 | 30322 ft | 379 kts | 230° |
| 2026-02-19 13:40 | 46.59629 | 18.18571 | 30632 ft | 378 kts | 230° |
| 2026-02-19 13:40 | 46.55967 | 18.13100 | 31240 ft | 376 kts | 230° |
| 2026-02-19 13:40 | 46.54147 | 18.10387 | 31598 ft | 372 kts | 230° |
| 2026-02-19 13:41 | 46.52365 | 18.07733 | 31950 ft | 370 kts | 230° |
| 2026-02-19 13:41 | 46.50566 | 18.05058 | 32213 ft | 369 kts | 230° |
| 2026-02-19 13:41 | 46.48768 | 18.02385 | 32468 ft | 369 kts | 230° |
| 2026-02-19 13:41 | 46.46970 | 17.99713 | 32708 ft | 368 kts | 230° |
| 2026-02-19 13:42 | 46.45179 | 17.97056 | 32971 ft | 367 kts | 230° |
| 2026-02-19 13:42 | 46.43405 | 17.94427 | 33086 ft | 370 kts | 230° |
| 2026-02-19 13:42 | 46.41594 | 17.91746 | 33271 ft | 370 kts | 230° |
| 2026-02-19 13:42 | 46.39793 | 17.89081 | 33516 ft | 369 kts | 230° |
| 2026-02-19 13:43 | 46.38020 | 17.86463 | 33736 ft | 367 kts | 230° |
| 2026-02-19 13:43 | 46.36234 | 17.83829 | 33987 ft | 365 kts | 230° |
| 2026-02-19 13:43 | 46.34449 | 17.81199 | 34118 ft | 366 kts | 230° |
| 2026-02-19 13:44 | 46.30870 | 17.75926 | 34333 ft | 367 kts | 230° |
| 2026-02-19 13:44 | 46.27278 | 17.70647 | 34572 ft | 368 kts | 230° |
| 2026-02-19 13:44 | 46.25480 | 17.68009 | 34695 ft | 369 kts | 230° |
| 2026-02-19 13:45 | 46.23700 | 17.65400 | 34799 ft | 369 kts | 230° |
| 2026-02-19 13:45 | 46.21893 | 17.62754 | 34897 ft | 369 kts | 230° |
| 2026-02-19 13:45 | 46.20088 | 17.60114 | 35035 ft | 368 kts | 230° |
| 2026-02-19 13:45 | 46.18283 | 17.57477 | 35150 ft | 368 kts | 230° |
| 2026-02-19 13:46 | 46.14664 | 17.52196 | 35297 ft | 371 kts | 230° |
| 2026-02-19 13:46 | 46.11052 | 17.46935 | 35429 ft | 372 kts | 230° |
| 2026-02-19 13:47 | 46.07388 | 17.41608 | 35564 ft | 374 kts | 229° |
| 2026-02-19 13:47 | 46.03701 | 17.36261 | 35668 ft | 376 kts | 229° |
| 2026-02-19 13:48 | 45.98585 | 17.27798 | 35749 ft | 374 kts | 241° |
| 2026-02-19 13:49 | 45.96011 | 17.21305 | 35747 ft | 374 kts | 243° |
| 2026-02-19 13:49 | 45.93592 | 17.14716 | 35743 ft | 375 kts | 243° |
| 2026-02-19 13:50 | 45.91162 | 17.08045 | 35730 ft | 375 kts | 243° |
| 2026-02-19 13:50 | 45.88735 | 17.01451 | 35722 ft | 375 kts | 243° |
| 2026-02-19 13:51 | 45.86285 | 16.94845 | 35726 ft | 375 kts | 243° |
| 2026-02-19 13:51 | 45.83835 | 16.88270 | 35713 ft | 375 kts | 243° |
| 2026-02-19 13:52 | 45.81368 | 16.81664 | 35713 ft | 375 kts | 243° |
| 2026-02-19 13:52 | 45.77658 | 16.71760 | 35717 ft | 375 kts | 242° |
| 2026-02-19 13:53 | 45.75188 | 16.65180 | 35701 ft | 378 kts | 242° |
| 2026-02-19 13:53 | 45.72688 | 16.58534 | 35690 ft | 378 kts | 242° |
| 2026-02-19 13:54 | 45.70202 | 16.51946 | 35691 ft | 377 kts | 242° |
| 2026-02-19 13:54 | 45.67700 | 16.45328 | 35686 ft | 377 kts | 242° |
| 2026-02-19 13:55 | 45.65217 | 16.38777 | 35685 ft | 377 kts | 242° |
| 2026-02-19 13:55 | 45.62708 | 16.32172 | 35675 ft | 377 kts | 242° |
| 2026-02-19 13:56 | 45.58959 | 16.22335 | 35667 ft | 377 kts | 242° |
| 2026-02-19 13:57 | 45.56442 | 16.15747 | 35666 ft | 378 kts | 241° |
| 2026-02-19 13:57 | 45.53921 | 16.09166 | 35661 ft | 380 kts | 241° |
| 2026-02-19 13:58 | 45.51373 | 16.02533 | 35652 ft | 380 kts | 241° |
| 2026-02-19 13:58 | 45.48825 | 15.95915 | 35653 ft | 380 kts | 241° |
| 2026-02-19 13:59 | 45.46292 | 15.89350 | 35652 ft | 380 kts | 241° |
| 2026-02-19 13:59 | 45.43739 | 15.82751 | 35651 ft | 380 kts | 241° |
| 2026-02-19 14:00 | 45.41199 | 15.76199 | 35652 ft | 379 kts | 241° |
| 2026-02-19 14:00 | 45.37366 | 15.66342 | 35668 ft | 379 kts | 241° |
| 2026-02-19 14:01 | 45.34812 | 15.59796 | 35648 ft | 382 kts | 240° |
| 2026-02-19 14:01 | 45.32219 | 15.53164 | 35647 ft | 384 kts | 240° |
| 2026-02-19 14:02 | 45.29625 | 15.46545 | 35644 ft | 383 kts | 240° |
| 2026-02-19 14:02 | 45.27031 | 15.39942 | 35643 ft | 384 kts | 240° |
| 2026-02-19 14:03 | 45.24418 | 15.33308 | 35643 ft | 384 kts | 240° |
| 2026-02-19 14:03 | 45.21817 | 15.26717 | 35641 ft | 384 kts | 240° |
| 2026-02-19 14:04 | 45.16583 | 15.13526 | 35645 ft | 384 kts | 239° |
| 2026-02-19 14:05 | 45.13848 | 15.07094 | 35642 ft | 383 kts | 238° |
| 2026-02-19 14:05 | 45.11034 | 15.00706 | 35647 ft | 382 kts | 238° |
| 2026-02-19 14:06 | 45.08220 | 14.94328 | 35642 ft | 381 kts | 238° |
| 2026-02-19 14:06 | 45.05426 | 14.87978 | 35643 ft | 382 kts | 238° |
| 2026-02-19 14:07 | 45.03093 | 14.82671 | 35642 ft | 382 kts | 238° |
| 2026-02-19 14:07 | 45.00288 | 14.76300 | 35616 ft | 380 kts | 238° |
| 2026-02-19 14:08 | 44.96082 | 14.66779 | 35646 ft | 380 kts | 238° |
| 2026-02-19 14:09 | 44.93286 | 14.60466 | 35648 ft | 382 kts | 238° |
| 2026-02-19 14:09 | 44.90449 | 14.54107 | 35647 ft | 383 kts | 238° |
| 2026-02-19 14:10 | 44.87608 | 14.47782 | 35651 ft | 383 kts | 237° |
| 2026-02-19 14:10 | 44.84754 | 14.41447 | 35649 ft | 382 kts | 237° |
| 2026-02-19 14:11 | 44.81901 | 14.35124 | 35659 ft | 381 kts | 237° |
| 2026-02-19 14:11 | 44.79104 | 14.28823 | 35656 ft | 380 kts | 238° |
| 2026-02-19 14:12 | 44.76311 | 14.22489 | 35653 ft | 380 kts | 238° |
| 2026-02-19 14:12 | 44.72099 | 14.13075 | 35674 ft | 380 kts | 238° |
| 2026-02-19 14:13 | 44.69257 | 14.06782 | 35647 ft | 380 kts | 238° |
| 2026-02-19 14:13 | 44.66428 | 14.00532 | 35632 ft | 379 kts | 238° |
| 2026-02-19 14:14 | 44.65014 | 13.97413 | 35205 ft | 376 kts | 237° |
| 2026-02-19 14:14 | 44.63617 | 13.94330 | 34803 ft | 371 kts | 237° |
| 2026-02-19 14:14 | 44.62237 | 13.91292 | 34673 ft | 367 kts | 237° |
| 2026-02-19 14:14 | 44.60860 | 13.88262 | 34639 ft | 368 kts | 237° |
| 2026-02-19 14:15 | 44.58120 | 13.82245 | 34626 ft | 369 kts | 237° |
| 2026-02-19 14:15 | 44.55354 | 13.76183 | 34634 ft | 368 kts | 237° |
| 2026-02-19 14:16 | 44.51202 | 13.67107 | 34635 ft | 368 kts | 237° |
| 2026-02-19 14:17 | 44.48451 | 13.61110 | 34628 ft | 369 kts | 237° |
| 2026-02-19 14:17 | 44.45650 | 13.55015 | 34624 ft | 372 kts | 236° |
| 2026-02-19 14:18 | 44.42698 | 13.49119 | 34623 ft | 372 kts | 229° |
| 2026-02-19 14:18 | 44.38829 | 13.44304 | 34623 ft | 375 kts | 216° |
| 2026-02-19 14:19 | 44.34318 | 13.40595 | 34616 ft | 377 kts | 212° |
| 2026-02-19 14:19 | 44.29693 | 13.37122 | 34612 ft | 377 kts | 212° |
| 2026-02-19 14:20 | 44.20458 | 13.30226 | 34605 ft | 376 kts | 212° |
| 2026-02-19 14:21 | 44.15864 | 13.26760 | 34619 ft | 373 kts | 212° |
| 2026-02-19 14:21 | 44.11321 | 13.23330 | 34613 ft | 373 kts | 212° |
| 2026-02-19 14:22 | 44.06748 | 13.19883 | 34609 ft | 373 kts | 212° |
| 2026-02-19 14:22 | 44.02205 | 13.16468 | 34610 ft | 373 kts | 212° |
| 2026-02-19 14:23 | 43.97631 | 13.13035 | 34650 ft | 373 kts | 212° |
| 2026-02-19 14:23 | 43.93028 | 13.09583 | 34613 ft | 377 kts | 212° |
| 2026-02-19 14:24 | 43.88396 | 13.06121 | 34608 ft | 378 kts | 212° |
| 2026-02-19 14:24 | 43.81499 | 13.00982 | 34610 ft | 374 kts | 212° |
| 2026-02-19 14:25 | 43.79213 | 12.99281 | 34360 ft | 371 kts | 212° |
| 2026-02-19 14:25 | 43.76942 | 12.97591 | 33827 ft | 368 kts | 212° |
| 2026-02-19 14:25 | 43.74695 | 12.95922 | 33281 ft | 364 kts | 211° |
| 2026-02-19 14:25 | 43.72460 | 12.94263 | 32757 ft | 362 kts | 211° |
| 2026-02-19 14:26 | 43.70256 | 12.92625 | 32603 ft | 366 kts | 211° |
| 2026-02-19 14:26 | 43.68013 | 12.90959 | 32041 ft | 366 kts | 211° |
| 2026-02-19 14:26 | 43.65773 | 12.89298 | 31303 ft | 365 kts | 211° |
| 2026-02-19 14:26 | 43.63522 | 12.87631 | 30565 ft | 366 kts | 211° |
| 2026-02-19 14:27 | 43.61273 | 12.85967 | 29807 ft | 367 kts | 210° |
| 2026-02-19 14:27 | 43.59044 | 12.84319 | 29028 ft | 368 kts | 210° |
| 2026-02-19 14:27 | 43.56772 | 12.82640 | 28652 ft | 374 kts | 210° |
| 2026-02-19 14:27 | 43.54457 | 12.80932 | 28610 ft | 378 kts | 210° |
| 2026-02-19 14:28 | 43.47479 | 12.75797 | 28616 ft | 378 kts | 209° |
| 2026-02-19 14:29 | 43.42844 | 12.72373 | 28486 ft | 375 kts | 210° |
| 2026-02-19 14:29 | 43.40605 | 12.70619 | 27726 ft | 374 kts | 211° |
| 2026-02-19 14:29 | 43.38373 | 12.68768 | 26826 ft | 375 kts | 212° |
| 2026-02-19 14:29 | 43.36140 | 12.66870 | 25885 ft | 378 kts | 212° |
| 2026-02-19 14:30 | 43.33901 | 12.64951 | 24930 ft | 381 kts | 212° |
| 2026-02-19 14:30 | 43.31651 | 12.63028 | 24183 ft | 380 kts | 211° |
| 2026-02-19 14:30 | 43.29417 | 12.61126 | 23568 ft | 375 kts | 211° |
| 2026-02-19 14:30 | 43.27203 | 12.59249 | 22784 ft | 373 kts | 211° |
| 2026-02-19 14:31 | 43.24990 | 12.57380 | 21899 ft | 372 kts | 211° |
| 2026-02-19 14:31 | 43.22804 | 12.55542 | 20861 ft | 374 kts | 211° |
| 2026-02-19 14:31 | 43.20541 | 12.53645 | 19487 ft | 387 kts | 211° |
| 2026-02-19 14:31 | 43.18229 | 12.51707 | 18410 ft | 392 kts | 211° |
| 2026-02-19 14:32 | 43.15901 | 12.49757 | 17437 ft | 391 kts | 211° |
| 2026-02-19 14:32 | 43.11312 | 12.45914 | 15721 ft | 384 kts | 212° |
| 2026-02-19 14:32 | 43.09040 | 12.44013 | 15058 ft | 379 kts | 212° |
| 2026-02-19 14:33 | 43.06782 | 12.42126 | 14751 ft | 379 kts | 212° |
| 2026-02-19 14:33 | 43.04529 | 12.40243 | 14706 ft | 380 kts | 212° |
| 2026-02-19 14:33 | 43.02262 | 12.38352 | 14659 ft | 380 kts | 212° |
| 2026-02-19 14:33 | 43.00027 | 12.36489 | 14052 ft | 374 kts | 213° |
| 2026-02-19 14:34 | 42.97825 | 12.34657 | 13063 ft | 376 kts | 213° |
| 2026-02-19 14:34 | 42.95557 | 12.32865 | 12106 ft | 376 kts | 208° |
| 2026-02-19 14:34 | 42.93115 | 12.31567 | 11288 ft | 376 kts | 198° |
| 2026-02-19 14:34 | 42.90570 | 12.30882 | 10839 ft | 366 kts | 192° |
| 2026-02-19 14:35 | 42.88122 | 12.30423 | 10708 ft | 354 kts | 191° |
| 2026-02-19 14:35 | 42.85662 | 12.30008 | 10685 ft | 355 kts | 190° |
| 2026-02-19 14:35 | 42.83205 | 12.29611 | 10685 ft | 356 kts | 190° |
| 2026-02-19 14:35 | 42.80731 | 12.29214 | 10688 ft | 357 kts | 190° |
| 2026-02-19 14:36 | 42.78294 | 12.28831 | 10685 ft | 357 kts | 190° |
| 2026-02-19 14:36 | 42.73353 | 12.28075 | 10690 ft | 356 kts | 189° |
| 2026-02-19 14:36 | 42.70885 | 12.27702 | 10694 ft | 356 kts | 189° |
| 2026-02-19 14:37 | 42.68420 | 12.27326 | 10696 ft | 356 kts | 190° |
| 2026-02-19 14:37 | 42.65959 | 12.26948 | 10694 ft | 356 kts | 189° |
| 2026-02-19 14:37 | 42.63528 | 12.26574 | 10691 ft | 352 kts | 190° |
| 2026-02-19 14:37 | 42.61161 | 12.26215 | 10602 ft | 333 kts | 190° |
| 2026-02-19 14:38 | 42.58908 | 12.25877 | 10415 ft | 318 kts | 190° |
| 2026-02-19 14:38 | 42.56753 | 12.25552 | 10216 ft | 304 kts | 190° |
| 2026-02-19 14:38 | 42.54693 | 12.25241 | 10064 ft | 290 kts | 190° |
| 2026-02-19 14:38 | 42.52727 | 12.24944 | 9906 ft | 277 kts | 191° |
| 2026-02-19 14:39 | 42.50855 | 12.24658 | 9529 ft | 270 kts | 191° |
| 2026-02-19 14:39 | 42.48998 | 12.24375 | 8873 ft | 266 kts | 192° |
| 2026-02-19 14:39 | 42.47161 | 12.24092 | 8182 ft | 264 kts | 192° |
| 2026-02-19 14:39 | 42.45336 | 12.23819 | 7500 ft | 262 kts | 192° |
| 2026-02-19 14:40 | 42.43499 | 12.23532 | 6638 ft | 268 kts | 191° |
| 2026-02-19 14:40 | 42.39884 | 12.22997 | 5569 ft | 259 kts | 191° |
| 2026-02-19 14:40 | 42.38073 | 12.22716 | 5459 ft | 262 kts | 191° |
| 2026-02-19 14:41 | 42.36250 | 12.22443 | 5646 ft | 264 kts | 191° |
| 2026-02-19 14:41 | 42.34447 | 12.22166 | 5805 ft | 260 kts | 191° |
| 2026-02-19 14:41 | 42.32672 | 12.21896 | 5326 ft | 254 kts | 191° |
| 2026-02-19 14:41 | 42.30906 | 12.21626 | 4727 ft | 257 kts | 191° |
| 2026-02-19 14:42 | 42.29129 | 12.21357 | 4508 ft | 257 kts | 191° |
| 2026-02-19 14:42 | 42.27355 | 12.21092 | 4646 ft | 256 kts | 190° |
| 2026-02-19 14:42 | 42.25575 | 12.20825 | 4904 ft | 257 kts | 191° |
| 2026-02-19 14:42 | 42.23788 | 12.20552 | 4972 ft | 258 kts | 191° |
| 2026-02-19 14:43 | 42.22028 | 12.20287 | 4970 ft | 258 kts | 191° |
| 2026-02-19 14:43 | 42.20245 | 12.20018 | 4611 ft | 258 kts | 190° |
| 2026-02-19 14:43 | 42.18462 | 12.19747 | 4121 ft | 255 kts | 191° |
| 2026-02-19 14:43 | 42.16724 | 12.19487 | 3983 ft | 249 kts | 190° |
| 2026-02-19 14:44 | 42.14987 | 12.19265 | 3973 ft | 252 kts | 188° |
| 2026-02-19 14:44 | 42.11494 | 12.19160 | 3540 ft | 254 kts | 185° |
| 2026-02-19 14:44 | 42.09732 | 12.19138 | 3100 ft | 252 kts | 185° |
| 2026-02-19 14:45 | 42.07986 | 12.19118 | 2982 ft | 249 kts | 185° |
| 2026-02-19 14:45 | 42.06312 | 12.19102 | 2996 ft | 230 kts | 186° |
| 2026-02-19 14:45 | 42.04769 | 12.19087 | 2975 ft | 216 kts | 186° |
| 2026-02-19 14:45 | 42.03259 | 12.19065 | 2991 ft | 218 kts | 186° |
| 2026-02-19 14:46 | 42.01735 | 12.19109 | 2995 ft | 221 kts | 179° |
| 2026-02-19 14:46 | 42.00275 | 12.19533 | 3005 ft | 208 kts | 168° |
| 2026-02-19 14:46 | 41.98962 | 12.20107 | 2992 ft | 187 kts | 168° |
| 2026-02-19 14:46 | 41.97764 | 12.20619 | 2830 ft | 175 kts | 170° |
| 2026-02-19 14:47 | 41.96641 | 12.21081 | 2573 ft | 166 kts | 169° |
| 2026-02-19 14:47 | 41.95563 | 12.21531 | 2329 ft | 161 kts | 172° |
| 2026-02-19 14:47 | 41.94478 | 12.21986 | 2121 ft | 160 kts | 172° |
| 2026-02-19 14:47 | 41.93448 | 12.22424 | 1879 ft | 149 kts | 173° |
| 2026-02-19 14:48 | 41.92469 | 12.22835 | 1680 ft | 146 kts | 173° |
| 2026-02-19 14:48 | 41.90533 | 12.23646 | 1287 ft | 148 kts | 173° |
| 2026-02-19 14:48 | 41.89542 | 12.24064 | 1079 ft | 149 kts | 173° |
| 2026-02-19 14:49 | 41.88566 | 12.24474 | 863 ft | 144 kts | 171° |
| 2026-02-19 14:49 | 41.87620 | 12.24875 | 681 ft | 142 kts | 171° |
| 2026-02-19 14:49 | 41.86677 | 12.25270 | 481 ft | 142 kts | 172° |
| 2026-02-19 14:49 | 41.85749 | 12.25691 | 299 ft | 140 kts | 172° |
| 2026-02-19 14:50 | 41.84815 | 12.26076 | 136 ft | 140 kts | 169° |
| 2026-02-19 14:50 | 41.83894 | 12.26453 | 24 ft | 131 kts | 168° |
| 2026-02-19 14:50 | 41.83204 | 12.26734 | 16 ft | 63 kts | 162° |
| 2026-02-19 14:50 | 41.82822 | 12.26871 | 21 ft | 48 kts | 182° |
| 2026-02-19 14:51 | 41.82498 | 12.26815 | 17 ft | 45 kts | 190° |
| 2026-02-19 14:51 | 41.82273 | 12.26800 | 16 ft | 29 kts | 163° |
| 2026-02-19 14:51 | 41.82090 | 12.26877 | 14 ft | 26 kts | 163° |
| 2026-02-19 14:51 | 41.81961 | 12.26930 | 16 ft | 0 kts | 162° |
| 2026-02-19 14:53 | 41.81898 | 12.26958 | 17 ft | 18 kts | 160° |
| 2026-02-19 14:53 | 41.81750 | 12.27022 | 20 ft | 26 kts | 163° |
| 2026-02-19 14:53 | 41.81595 | 12.27083 | 20 ft | 19 kts | 162° |
| 2026-02-19 14:54 | 41.81573 | 12.27093 | 20 ft | 0 kts | 162° |
| 2026-02-19 14:54 | 41.81514 | 12.27118 | 22 ft | 22 kts | 164° |
| 2026-02-19 14:54 | 41.81376 | 12.27173 | 20 ft | 20 kts | 163° |
| 2026-02-19 14:54 | 41.81288 | 12.27214 | 17 ft | 20 kts | 161° |
| 2026-02-19 14:55 | 41.81155 | 12.27268 | 16 ft | 19 kts | 164° |
| 2026-02-19 14:55 | 41.81028 | 12.27320 | 15 ft | 19 kts | 163° |
| 2026-02-19 14:55 | 41.80868 | 12.27341 | 16 ft | 6 kts | 187° |
| 2026-02-19 14:55 | 41.80860 | 12.27340 | 16 ft | 1 kts | 187° |
| 2026-02-19 14:56 | 41.80755 | 12.27318 | 16 ft | 23 kts | 191° |
| 2026-02-19 14:56 | 41.80597 | 12.27011 | 17 ft | 20 kts | 250° |
| 2026-02-19 14:56 | 41.80551 | 12.26838 | 17 ft | 19 kts | 250° |
| 2026-02-19 14:57 | 41.80501 | 12.26668 | 16 ft | 23 kts | 248° |
| 2026-02-19 14:57 | 41.80447 | 12.26467 | 17 ft | 23 kts | 251° |
| 2026-02-19 14:57 | 41.80393 | 12.26357 | 16 ft | 12 kts | 195° |
| 2026-02-19 14:57 | 41.80319 | 12.26377 | 17 ft | 3 kts | 166° |
| 2026-02-19 14:58 | 41.80297 | 12.26381 | 17 ft | 3 kts | 187° |
| 2026-02-19 14:58 | 41.80275 | 12.26361 | 18 ft | 4 kts | 241° |
| 2026-02-19 14:58 | 41.80292 | 12.26321 | 17 ft | 3 kts | 304° |
| 2026-02-19 14:58 | 41.80296 | 12.26299 | 17 ft | 3 kts | 256° |
| 2026-02-19 14:59 | 41.80268 | 12.26284 | 17 ft | 4 kts | 197° |
| 2026-02-19 14:59 | 41.80258 | 12.26279 | 17 ft | 0 kts | 201° |